Fargo, ND

3:20 PM CST on February 28, 2015 (GMT -0600)
Hector International | Change Station
CLOSE
Current Station
Airport
Location: Fargo,
Elevation: 899 ft
Nearby Weather Stations

Elev 899 ft 46.91 °N, 96.81 °W | Updated 27 minutes ago

Overcast
Overcast
27 °F
Feels Like 12 °F
N
24
Wind Variable Wind from South
Gusts 31 mph

Today
High -- | Low -- °F
--% Chance of Precip.
Yesterday
High -- | Low -- °F
Precip. -- in
7:09 AM 6:11 PM
Waxing Gibbous, 80% visible
Pressure 30.21 in
Visibility 10.0 miles
Clouds Scattered Clouds 3800 ft
Overcast 6500 ft
Windchill 12 °F
Dew Point 14 °F
Humidity 58%
Rainfall 0.00 in
Snow Depth Not available.
UV 1 out of 12
Pollen .10 out of 12
Air Quality Not available.
Flu Activity Not available.
METAR KFAR 282053Z 19021G27KT 10SM SCT038 OVC065 M03/M10 A3015 RMK AO2 PK WND 19027/2046 SLP229 T10281100 56020

More Conditions Fewer Conditions

Pressure 30.21 in
Visibility 10.0 miles
Clouds Scattered Clouds 3800 ft
Overcast 6500 ft
Windchill 12 °F
Dew Point 14 °F
Humidity 58%
Rainfall 0.00 in
Snow Depth Not available.
UV 1 out of 12
Pollen .10 out of 12
Air Quality Not available.
Flu Activity Not available.
METAR KFAR 282053Z 19021G27KT 10SM SCT038 OVC065 M03/M10 A3015 RMK AO2 PK WND 19027/2046 SLP229 T10281100 56020

More Conditions Fewer Conditions

10-Day Weather Forecast

Almanac

Astronomy

Feb. 28, 2015 Rise Set
Actual Time
Civil Twilight
Nautical Twilight
Astronomical Twilight
Moon
Length of Visible Light
Length of Day
Tomorrow will be .
, % of the Moon is Illuminated

Today's Extremes

State Highs State Lows

Community

WunderPhotos

Upload Photos

1,801,152 photos uploaded!

WunderBlogs® & News

Nearby

Air Quality

  Air Quality AQ Index Pollutant
Not available.

Snow Depth

Station Depth Elevation

Earthquake Activity

City Distance Mag. Time & Date
Minimum magnitude displayed is 2.5.

Coastal Water Temperatures

Place Temperature

Nearby Weather Stations